Stephenville Crossing, Canada
Current Conditions -  °F | °C
As of 11:00 AM on Saturday 20 Dec 2014 (Local Time) from CYJT Reporting Station
Broken Clouds Broken Clouds  
Wind Chill: 21°   Ceiling: 2600
Heat Index: 30°   Visibility: 15mi
Dew Point: 19°   Wind: 10mph
Humidity: 64%   Direction: 30°NNE
Pressure: 30.24"   Gusts: 17mph
Location:  48.52°N, 58.42°W
Report Text: CYJT 201400Z 03009G15KT 15SM BKN026 M01/M07 A3024 RMK SC7 SLP241
Loading
Personal Weather Stations






























Interactive Weather Map New forecast layout! Learn more

10-Day Weather Forecast

Advertisements
Track Severe Weather on mobile